sensor_id;sensor_type;location;lat;lon;timestamp;pressure;altitude;pressure_sealevel;temperature
71640;BMP280;60912;48.968;10.124;2023-02-10T00:00:28;98368.19;;;-4.59
71640;BMP280;60912;48.968;10.124;2023-02-10T00:02:53;98369.28;;;-4.56
71640;BMP280;60912;48.968;10.124;2023-02-10T00:05:19;98365.13;;;-4.64
71640;BMP280;60912;48.968;10.124;2023-02-10T00:07:44;98375.47;;;-4.56
71640;BMP280;60912;48.968;10.124;2023-02-10T00:10:09;98370.84;;;-4.52
71640;BMP280;60912;48.968;10.124;2023-02-10T00:12:36;98370.13;;;-4.66
71640;BMP280;60912;48.968;10.124;2023-02-10T00:15:03;98360.94;;;-4.79
71640;BMP280;60912;48.968;10.124;2023-02-10T00:17:29;98370.94;;;-4.73
71640;BMP280;60912;48.968;10.124;2023-02-10T00:19:54;98359.38;;;-4.77
71640;BMP280;60912;48.968;10.124;2023-02-10T00:22:20;98370.19;;;-4.88
71640;BMP280;60912;48.968;10.124;2023-02-10T00:24:45;98358.69;;;-5.02
71640;BMP280;60912;48.968;10.124;2023-02-10T00:27:10;98359.84;;;-5.10
71640;BMP280;60912;48.968;10.124;2023-02-10T00:29:36;98359.84;;;-5.10
71640;BMP280;60912;48.968;10.124;2023-02-10T00:32:01;98365.22;;;-5.03
71640;BMP280;60912;48.968;10.124;2023-02-10T00:34:26;98355.63;;;-5.11
71640;BMP280;60912;48.968;10.124;2023-02-10T00:36:53;98358.69;;;-5.06
71640;BMP280;60912;48.968;10.124;2023-02-10T00:39:19;98353.34;;;-5.16
71640;BMP280;60912;48.968;10.124;2023-02-10T00:41:45;98353.34;;;-5.31
71640;BMP280;60912;48.968;10.124;2023-02-10T00:44:10;98354.13;;;-5.34
71640;BMP280;60912;48.968;10.124;2023-02-10T00:46:36;98362.59;;;-5.35
71640;BMP280;60912;48.968;10.124;2023-02-10T00:49:02;98365.28;;;-5.21
71640;BMP280;60912;48.968;10.124;2023-02-10T00:51:27;98375.22;;;-5.14
71640;BMP280;60912;48.968;10.124;2023-02-10T00:53:53;98379.03;;;-4.98
71640;BMP280;60912;48.968;10.124;2023-02-10T00:56:21;98379.75;;;-4.79
71640;BMP280;60912;48.968;10.124;2023-02-10T00:58:47;98382.41;;;-4.62
71640;BMP280;60912;48.968;10.124;2023-02-10T01:01:13;98378.56;;;-4.64
71640;BMP280;60912;48.968;10.124;2023-02-10T01:03:41;98376.66;;;-4.74
71640;BMP280;60912;48.968;10.124;2023-02-10T01:06:07;98382.44;;;-4.79
71640;BMP280;60912;48.968;10.124;2023-02-10T01:08:33;98384.75;;;-4.78
71640;BMP280;60912;48.968;10.124;2023-02-10T01:11:05;98388.22;;;-4.77
71640;BMP280;60912;48.968;10.124;2023-02-10T01:13:31;98385.56;;;-4.84
71640;BMP280;60912;48.968;10.124;2023-02-10T01:15:59;98381.72;;;-4.91
71640;BMP280;60912;48.968;10.124;2023-02-10T01:18:24;98381.69;;;-4.94
71640;BMP280;60912;48.968;10.124;2023-02-10T01:20:50;98382.50;;;-4.90
71640;BMP280;60912;48.968;10.124;2023-02-10T01:23:15;98391.69;;;-4.73
71640;BMP280;60912;48.968;10.124;2023-02-10T01:25:41;98392.84;;;-4.71
71640;BMP280;60912;48.968;10.124;2023-02-10T01:28:06;98389.34;;;-4.78
71640;BMP280;60912;48.968;10.124;2023-02-10T01:30:33;98386.31;;;-4.73
71640;BMP280;60912;48.968;10.124;2023-02-10T01:32:58;98393.19;;;-4.65
71640;BMP280;60912;48.968;10.124;2023-02-10T01:35:24;98390.91;;;-4.70
71640;BMP280;60912;48.968;10.124;2023-02-10T01:37:49;98396.25;;;-4.63
71640;BMP280;60912;48.968;10.124;2023-02-10T01:40:15;98390.91;;;-4.70
71640;BMP280;60912;48.968;10.124;2023-02-10T01:42:40;98384.38;;;-4.73
71640;BMP280;60912;48.968;10.124;2023-02-10T01:45:17;98384.34;;;-4.76
71640;BMP280;60912;48.968;10.124;2023-02-10T01:47:43;98381.34;;;-4.89
71640;BMP280;60912;48.968;10.124;2023-02-10T01:50:11;98386.34;;;-4.95
71640;BMP280;60912;48.968;10.124;2023-02-10T01:52:37;98384.00;;;-4.93
71640;BMP280;60912;48.968;10.124;2023-02-10T01:55:06;98382.84;;;-4.81
71640;BMP280;60912;48.968;10.124;2023-02-10T01:57:33;98384.75;;;-4.78
71640;BMP280;60912;48.968;10.124;2023-02-10T02:00:00;98388.66;;;-4.97
71640;BMP280;60912;48.968;10.124;2023-02-10T02:02:26;98385.59;;;-5.06
71640;BMP280;60912;48.968;10.124;2023-02-10T02:04:54;98389.41;;;-5.00
71640;BMP280;60912;48.968;10.124;2023-02-10T02:07:25;98391.34;;;-5.04
71640;BMP280;60912;48.968;10.124;2023-02-10T02:09:52;98391.72;;;-4.95
71640;BMP280;60912;48.968;10.124;2023-02-10T02:15:30;98387.09;;;-4.83
71640;BMP280;60912;48.968;10.124;2023-02-10T02:18:28;98391.66;;;-4.77
71640;BMP280;60912;48.968;10.124;2023-02-10T02:32:14;98397.88;;;-5.15
71640;BMP280;60912;48.968;10.124;2023-02-10T02:37:20;98400.59;;;-5.08
71640;BMP280;60912;48.968;10.124;2023-02-10T02:39:52;98396.75;;;-5.25
71640;BMP280;60912;48.968;10.124;2023-02-10T02:42:22;98410.19;;;-5.32
71640;BMP280;60912;48.968;10.124;2023-02-10T02:44:53;98405.16;;;-5.30
71640;BMP280;60912;48.968;10.124;2023-02-10T02:53:25;98410.94;;;-5.14
71640;BMP280;60912;48.968;10.124;2023-02-10T02:55:59;98420.16;;;-5.01
71640;BMP280;60912;48.968;10.124;2023-02-10T02:58:36;98423.97;;;-4.88
71640;BMP280;60912;48.968;10.124;2023-02-10T03:01:12;98424.38;;;-4.96
71640;BMP280;60912;48.968;10.124;2023-02-10T03:03:39;98416.72;;;-5.08
71640;BMP280;60912;48.968;10.124;2023-02-10T03:06:05;98424.75;;;-5.15
71640;BMP280;60912;48.968;10.124;2023-02-10T03:08:33;98427.47;;;-5.33
71640;BMP280;60912;48.968;10.124;2023-02-10T03:10:59;98430.50;;;-5.31
71640;BMP280;60912;48.968;10.124;2023-02-10T03:13:25;98425.53;;;-5.40
71640;BMP280;60912;48.968;10.124;2023-02-10T03:15:50;98428.59;;;-5.41
71640;BMP280;60912;48.968;10.124;2023-02-10T03:18:16;98420.91;;;-5.46
71640;BMP280;60912;48.968;10.124;2023-02-10T03:20:42;98424.00;;;-5.41
71640;BMP280;60912;48.968;10.124;2023-02-10T03:23:09;98422.06;;;-5.47
71640;BMP280;60912;48.968;10.124;2023-02-10T03:25:35;98428.59;;;-5.45
71640;BMP280;60912;48.968;10.124;2023-02-10T03:28:00;98420.94;;;-5.39
71640;BMP280;60912;48.968;10.124;2023-02-10T03:30:25;98425.50;;;-5.43
71640;BMP280;60912;48.968;10.124;2023-02-10T03:32:51;98419.38;;;-5.58
71640;BMP280;60912;48.968;10.124;2023-02-10T03:35:18;98415.91;;;-5.73
71640;BMP280;60912;48.968;10.124;2023-02-10T03:37:44;98420.84;;;-5.82
71640;BMP280;60912;48.968;10.124;2023-02-10T03:40:10;98432.00;;;-5.83
71640;BMP280;60912;48.968;10.124;2023-02-10T03:42:35;98428.88;;;-5.93
71640;BMP280;60912;48.968;10.124;2023-02-10T03:45:00;98436.94;;;-5.96
71640;BMP280;60912;48.968;10.124;2023-02-10T03:47:26;98428.06;;;-6.11
71640;BMP280;60912;48.968;10.124;2023-02-10T03:49:51;98418.06;;;-6.21
71640;BMP280;60912;48.968;10.124;2023-02-10T03:52:16;98416.50;;;-6.19
71640;BMP280;60912;48.968;10.124;2023-02-10T03:54:42;98423.13;;;-5.98
71640;BMP280;60912;48.968;10.124;2023-02-10T03:57:07;98425.03;;;-5.95
71640;BMP280;60912;48.968;10.124;2023-02-10T03:59:33;98438.84;;;-6.00
71640;BMP280;60912;48.968;10.124;2023-02-10T04:01:58;98433.41;;;-6.07
71640;BMP280;60912;48.968;10.124;2023-02-10T04:04:24;98439.97;;;-6.08
71640;BMP280;60912;48.968;10.124;2023-02-10T04:06:49;98432.66;;;-6.08
71640;BMP280;60912;48.968;10.124;2023-02-10T04:09:15;98434.97;;;-6.13
71640;BMP280;60912;48.968;10.124;2023-02-10T04:11:40;98445.63;;;-6.21
71640;BMP280;60912;48.968;10.124;2023-02-10T04:14:05;98444.13;;;-6.22
71640;BMP280;60912;48.968;10.124;2023-02-10T04:16:31;98441.41;;;-6.25
71640;BMP280;60912;48.968;10.124;2023-02-10T04:18:57;98443.72;;;-6.24
71640;BMP280;60912;48.968;10.124;2023-02-10T04:21:23;98433.75;;;-6.20
71640;BMP280;60912;48.968;10.124;2023-02-10T04:23:50;98439.94;;;-6.05
71640;BMP280;60912;48.968;10.124;2023-02-10T04:26:16;98439.56;;;-6.07
71640;BMP280;60912;48.968;10.124;2023-02-10T04:28:41;98443.81;;;-5.95
71640;BMP280;60912;48.968;10.124;2023-02-10T04:31:07;98452.31;;;-5.86
71640;BMP280;60912;48.968;10.124;2023-02-10T04:33:33;98453.81;;;-5.92
71640;BMP280;60912;48.968;10.124;2023-02-10T04:35:58;98446.84;;;-6.07
71640;BMP280;60912;48.968;10.124;2023-02-10T04:38:24;98449.13;;;-6.16
71640;BMP280;60912;48.968;10.124;2023-02-10T04:40:49;98462.16;;;-6.15
71640;BMP280;60912;48.968;10.124;2023-02-10T04:43:15;98463.66;;;-6.18
71640;BMP280;60912;48.968;10.124;2023-02-10T04:45:41;98462.94;;;-6.14
71640;BMP280;60912;48.968;10.124;2023-02-10T04:48:06;98460.59;;;-6.20
71640;BMP280;60912;48.968;10.124;2023-02-10T04:50:32;98462.94;;;-6.14
71640;BMP280;60912;48.968;10.124;2023-02-10T04:52:58;98468.38;;;-6.00
71640;BMP280;60912;48.968;10.124;2023-02-10T04:55:24;98470.28;;;-5.94
71640;BMP280;60912;48.968;10.124;2023-02-10T04:57:49;98470.31;;;-5.97
71640;BMP280;60912;48.968;10.124;2023-02-10T05:00:15;98470.69;;;-5.99
71640;BMP280;60912;48.968;10.124;2023-02-10T05:02:40;98470.66;;;-6.02
71640;BMP280;60912;48.968;10.124;2023-02-10T05:05:06;98476.34;;;-6.07
71640;BMP280;60912;48.968;10.124;2023-02-10T05:07:35;98474.47;;;-6.03
71640;BMP280;60912;48.968;10.124;2023-02-10T05:10:00;98466.41;;;-6.10
71640;BMP280;60912;48.968;10.124;2023-02-10T05:12:28;98469.84;;;-6.06
71640;BMP280;60912;48.968;10.124;2023-02-10T05:14:54;98469.47;;;-6.12
71640;BMP280;60912;48.968;10.124;2023-02-10T05:17:19;98471.72;;;-6.18
71640;BMP280;60912;48.968;10.124;2023-02-10T05:19:44;98487.88;;;-6.14
71640;BMP280;60912;48.968;10.124;2023-02-10T05:22:10;98491.34;;;-6.10
71640;BMP280;60912;48.968;10.124;2023-02-10T05:24:35;98501.34;;;-6.00
71640;BMP280;60912;48.968;10.124;2023-02-10T05:27:00;98490.56;;;-6.03
71640;BMP280;60912;48.968;10.124;2023-02-10T05:29:26;98493.25;;;-6.10
71640;BMP280;60912;48.968;10.124;2023-02-10T05:31:51;98492.84;;;-6.12
71640;BMP280;60912;48.968;10.124;2023-02-10T05:34:17;98489.38;;;-6.16
71640;BMP280;60912;48.968;10.124;2023-02-10T05:36:42;98487.00;;;-6.29
71640;BMP280;60912;48.968;10.124;2023-02-10T05:39:10;98498.88;;;-6.30
71640;BMP280;60912;48.968;10.124;2023-02-10T05:41:48;98497.41;;;-6.24
71640;BMP280;60912;48.968;10.124;2023-02-10T05:44:13;98489.28;;;-6.31
71640;BMP280;60912;48.968;10.124;2023-02-10T05:46:39;98493.16;;;-6.28
71640;BMP280;60912;48.968;10.124;2023-02-10T05:49:04;98503.97;;;-6.10
71640;BMP280;60912;48.968;10.124;2023-02-10T05:51:29;98499.75;;;-6.11
71640;BMP280;60912;48.968;10.124;2023-02-10T05:53:55;98500.06;;;-6.24
71640;BMP280;60912;48.968;10.124;2023-02-10T05:56:20;98498.13;;;-6.30
71640;BMP280;60912;48.968;10.124;2023-02-10T05:58:46;98498.53;;;-6.25
71640;BMP280;60912;48.968;10.124;2023-02-10T06:01:11;98501.16;;;-6.32
71640;BMP280;60912;48.968;10.124;2023-02-10T06:03:37;98503.06;;;-6.32
71640;BMP280;60912;48.968;10.124;2023-02-10T06:06:06;98511.94;;;-6.25
71640;BMP280;60912;48.968;10.124;2023-02-10T06:08:31;98515.00;;;-6.26
71640;BMP280;60912;48.968;10.124;2023-02-10T06:10:57;98515.34;;;-6.35
71640;BMP280;60912;48.968;10.124;2023-02-10T06:13:22;98514.16;;;-6.41
71640;BMP280;60912;48.968;10.124;2023-02-10T06:15:48;98511.78;;;-6.49
71640;BMP280;60912;48.968;10.124;2023-02-10T06:18:13;98517.94;;;-6.49
71640;BMP280;60912;48.968;10.124;2023-02-10T06:20:41;98517.94;;;-6.49
71640;BMP280;60912;48.968;10.124;2023-02-10T06:23:07;98519.56;;;-6.34
71640;BMP280;60912;48.968;10.124;2023-02-10T06:25:32;98518.03;;;-6.35
71640;BMP280;60912;48.968;10.124;2023-02-10T06:27:59;98522.22;;;-6.37
71640;BMP280;60912;48.968;10.124;2023-02-10T06:30:24;98530.28;;;-6.37
71640;BMP280;60912;48.968;10.124;2023-02-10T06:32:50;98525.69;;;-6.37
71640;BMP280;60912;48.968;10.124;2023-02-10T06:35:15;98529.53;;;-6.31
71640;BMP280;60912;48.968;10.124;2023-02-10T06:37:40;98539.53;;;-6.28
71640;BMP280;60912;48.968;10.124;2023-02-10T06:40:06;98545.28;;;-6.26
71640;BMP280;60912;48.968;10.124;2023-02-10T06:42:32;98552.22;;;-6.21
71640;BMP280;60912;48.968;10.124;2023-02-10T06:44:58;98559.56;;;-6.14
71640;BMP280;60912;48.968;10.124;2023-02-10T06:47:23;98559.56;;;-6.07
71640;BMP280;60912;48.968;10.124;2023-02-10T06:49:48;98566.53;;;-5.99
71640;BMP280;60912;48.968;10.124;2023-02-10T06:52:14;98571.16;;;-5.96
71640;BMP280;60912;48.968;10.124;2023-02-10T06:54:40;98568.00;;;-6.05
71640;BMP280;60912;48.968;10.124;2023-02-10T06:57:24;98573.00;;;-6.04
71640;BMP280;60912;48.968;10.124;2023-02-10T06:59:53;98583.13;;;-5.79
71640;BMP280;60912;48.968;10.124;2023-02-10T07:02:19;98584.50;;;-5.16
71640;BMP280;60912;48.968;10.124;2023-02-10T07:04:44;98586.00;;;-3.91
71640;BMP280;60912;48.968;10.124;2023-02-10T07:07:10;98578.63;;;-3.03
71640;BMP280;60912;48.968;10.124;2023-02-10T07:09:35;98583.06;;;-1.97
71640;BMP280;60912;48.968;10.124;2023-02-10T07:12:01;98573.56;;;-1.17
71640;BMP280;60912;48.968;10.124;2023-02-10T07:14:26;98588.50;;;-0.16
71640;BMP280;60912;48.968;10.124;2023-02-10T07:16:51;98580.94;;;0.67
71640;BMP280;60912;48.968;10.124;2023-02-10T07:19:20;98573.50;;;1.20
71640;BMP280;60912;48.968;10.124;2023-02-10T07:21:45;98576.94;;;1.66
71640;BMP280;60912;48.968;10.124;2023-02-10T07:24:11;98575.41;;;2.61
71640;BMP280;60912;48.968;10.124;2023-02-10T07:26:36;98580.38;;;3.56
71640;BMP280;60912;48.968;10.124;2023-02-10T07:29:02;98580.69;;;4.73
71640;BMP280;60912;48.968;10.124;2023-02-10T07:31:27;98585.47;;;5.36
71640;BMP280;60912;48.968;10.124;2023-02-10T07:33:55;98585.56;;;5.96
71640;BMP280;60912;48.968;10.124;2023-02-10T07:36:23;98581.41;;;6.10
71640;BMP280;60912;48.968;10.124;2023-02-10T07:38:48;98595.59;;;5.99
71640;BMP280;60912;48.968;10.124;2023-02-10T07:41:14;98601.59;;;6.22
71640;BMP280;60912;48.968;10.124;2023-02-10T07:43:39;98608.72;;;5.50
71640;BMP280;60912;48.968;10.124;2023-02-10T07:46:04;98605.16;;;4.36
71640;BMP280;60912;48.968;10.124;2023-02-10T07:48:32;98613.88;;;3.22
71640;BMP280;60912;48.968;10.124;2023-02-10T07:50:58;98602.22;;;2.08
71640;BMP280;60912;48.968;10.124;2023-02-10T07:53:23;98598.09;;;1.29
71640;BMP280;60912;48.968;10.124;2023-02-10T07:55:51;98599.56;;;0.65
71640;BMP280;60912;48.968;10.124;2023-02-10T07:58:35;98595.44;;;0.05
71640;BMP280;60912;48.968;10.124;2023-02-10T08:01:13;98589.59;;;-0.56
71640;BMP280;60912;48.968;10.124;2023-02-10T08:03:41;98587.56;;;-0.99
71640;BMP280;60912;48.968;10.124;2023-02-10T08:06:07;98586.63;;;-1.12
71640;BMP280;60912;48.968;10.124;2023-02-10T08:08:36;98577.44;;;-1.18
71640;BMP280;60912;48.968;10.124;2023-02-10T08:11:09;98585.56;;;-1.18
71640;BMP280;60912;48.968;10.124;2023-02-10T08:14:01;98572.28;;;-1.09
71640;BMP280;60912;48.968;10.124;2023-02-10T08:16:27;98577.91;;;-1.00
71640;BMP280;60912;48.968;10.124;2023-02-10T08:18:59;98586.88;;;-0.80
71640;BMP280;60912;48.968;10.124;2023-02-10T08:21:27;98594.94;;;-0.53
71640;BMP280;60912;48.968;10.124;2023-02-10T08:23:53;98594.19;;;-0.53
71640;BMP280;60912;48.968;10.124;2023-02-10T08:26:23;98605.72;;;-0.26
71640;BMP280;60912;48.968;10.124;2023-02-10T08:28:49;98602.97;;;-0.03
71640;BMP280;60912;48.968;10.124;2023-02-10T08:31:15;98601.28;;;0.23
71640;BMP280;60912;48.968;10.124;2023-02-10T08:33:40;98602.00;;;0.44
71640;BMP280;60912;48.968;10.124;2023-02-10T08:36:10;98599.56;;;0.49
71640;BMP280;60912;48.968;10.124;2023-02-10T08:38:36;98601.28;;;0.23
71640;BMP280;60912;48.968;10.124;2023-02-10T08:41:04;98608.19;;;0.44
71640;BMP280;60912;48.968;10.124;2023-02-10T08:43:29;98610.31;;;0.53
71640;BMP280;60912;48.968;10.124;2023-02-10T08:45:58;98614.88;;;0.76
71640;BMP280;60912;48.968;10.124;2023-02-10T08:48:24;98605.06;;;0.98
71640;BMP280;60912;48.968;10.124;2023-02-10T08:50:50;98603.72;;;1.22
71640;BMP280;60912;48.968;10.124;2023-02-10T08:53:15;98611.78;;;1.55
71640;BMP280;60912;48.968;10.124;2023-02-10T08:55:41;98612.59;;;1.84
71640;BMP280;60912;48.968;10.124;2023-02-10T08:58:07;98614.22;;;1.94
71640;BMP280;60912;48.968;10.124;2023-02-10T09:00:32;98616.28;;;2.19
71640;BMP280;60912;48.968;10.124;2023-02-10T09:02:58;98612.06;;;2.56
71640;BMP280;60912;48.968;10.124;2023-02-10T09:05:24;98613.94;;;2.59
71640;BMP280;60912;48.968;10.124;2023-02-10T09:08:06;98606.28;;;2.67
71640;BMP280;60912;48.968;10.124;2023-02-10T09:10:34;98606.84;;;2.74
71640;BMP280;60912;48.968;10.124;2023-02-10T09:13:04;98600.63;;;2.86
71640;BMP280;60912;48.968;10.124;2023-02-10T09:15:50;98599.66;;;2.55
71640;BMP280;60912;48.968;10.124;2023-02-10T09:18:16;98605.09;;;2.68
71640;BMP280;60912;48.968;10.124;2023-02-10T09:20:44;98602.63;;;2.61
71640;BMP280;60912;48.968;10.124;2023-02-10T09:23:09;98613.69;;;2.66
71640;BMP280;60912;48.968;10.124;2023-02-10T09:25:34;98613.13;;;3.09
71640;BMP280;60912;48.968;10.124;2023-02-10T09:28:03;98610.66;;;3.37
71640;BMP280;60912;48.968;10.124;2023-02-10T09:30:28;98609.56;;;3.47
71640;BMP280;60912;48.968;10.124;2023-02-10T09:32:56;98602.22;;;3.78
71640;BMP280;60912;48.968;10.124;2023-02-10T09:35:22;98610.03;;;4.20
71640;BMP280;60912;48.968;10.124;2023-02-10T09:37:48;98616.34;;;4.38
71640;BMP280;60912;48.968;10.124;2023-02-10T09:40:20;98610.00;;;4.10
71640;BMP280;60912;48.968;10.124;2023-02-10T09:43:21;98610.13;;;4.07
71640;BMP280;60912;48.968;10.124;2023-02-10T09:45:57;98610.06;;;3.76
71640;BMP280;60912;48.968;10.124;2023-02-10T09:48:31;98608.50;;;3.88
71640;BMP280;60912;48.968;10.124;2023-02-10T09:51:31;98616.41;;;3.95
71640;BMP280;60912;48.968;10.124;2023-02-10T09:54:01;98617.78;;;4.21
71640;BMP280;60912;48.968;10.124;2023-02-10T09:56:30;98631.47;;;4.52
71640;BMP280;60912;48.968;10.124;2023-02-10T09:59:01;98622.06;;;4.53
71640;BMP280;60912;48.968;10.124;2023-02-10T10:01:37;98618.47;;;4.34
71640;BMP280;60912;48.968;10.124;2023-02-10T10:06:37;98625.97;;;4.21
71640;BMP280;60912;48.968;10.124;2023-02-10T10:11:47;98628.66;;;4.12
71640;BMP280;60912;48.968;10.124;2023-02-10T10:14:35;98633.16;;;4.28
71640;BMP280;60912;48.968;10.124;2023-02-10T10:30:18;98626.66;;;4.74
71640;BMP280;60912;48.968;10.124;2023-02-10T10:32:52;98624.03;;;5.02
71640;BMP280;60912;48.968;10.124;2023-02-10T10:35:28;98623.72;;;5.09
71640;BMP280;60912;48.968;10.124;2023-02-10T10:37:55;98611.31;;;5.17
71640;BMP280;60912;48.968;10.124;2023-02-10T10:40:30;98619.50;;;5.35
71640;BMP280;60912;48.968;10.124;2023-02-10T10:42:59;98621.47;;;5.35
71640;BMP280;60912;48.968;10.124;2023-02-10T10:45:29;98620.56;;;5.28
71640;BMP280;60912;48.968;10.124;2023-02-10T10:48:07;98616.56;;;4.93
71640;BMP280;60912;48.968;10.124;2023-02-10T10:50:33;98612.59;;;4.94
71640;BMP280;60912;48.968;10.124;2023-02-10T10:53:03;98626.72;;;4.93
71640;BMP280;60912;48.968;10.124;2023-02-10T10:55:37;98621.16;;;5.05
71640;BMP280;60912;48.968;10.124;2023-02-10T10:58:15;98613.56;;;5.46
71640;BMP280;60912;48.968;10.124;2023-02-10T11:00:56;98603.69;;;5.76
71640;BMP280;60912;48.968;10.124;2023-02-10T11:03:22;98619.66;;;5.77
71640;BMP280;60912;48.968;10.124;2023-02-10T11:08:27;98603.53;;;5.61
71640;BMP280;60912;48.968;10.124;2023-02-10T11:10:55;98607.19;;;5.85
71640;BMP280;60912;48.968;10.124;2023-02-10T11:13:26;98604.41;;;6.03
71640;BMP280;60912;48.968;10.124;2023-02-10T11:16:02;98598.41;;;6.23
71640;BMP280;60912;48.968;10.124;2023-02-10T11:18:28;98604.84;;;6.53
71640;BMP280;60912;48.968;10.124;2023-02-10T11:21:00;98596.19;;;6.78
71640;BMP280;60912;48.968;10.124;2023-02-10T11:23:26;98600.22;;;6.68
71640;BMP280;60912;48.968;10.124;2023-02-10T11:26:01;98596.25;;;6.84
71640;BMP280;60912;48.968;10.124;2023-02-10T11:28:29;98590.72;;;6.69
71640;BMP280;60912;48.968;10.124;2023-02-10T11:31:22;98583.75;;;6.68
71640;BMP280;60912;48.968;10.124;2023-02-10T11:34:00;98588.88;;;6.75
71640;BMP280;60912;48.968;10.124;2023-02-10T11:36:39;98584.16;;;6.76
71640;BMP280;60912;48.968;10.124;2023-02-10T11:39:16;98580.13;;;6.62
71640;BMP280;60912;48.968;10.124;2023-02-10T11:41:44;98568.41;;;6.62
71640;BMP280;60912;48.968;10.124;2023-02-10T11:44:29;98577.03;;;6.69
71640;BMP280;60912;48.968;10.124;2023-02-10T11:46:59;98570.16;;;6.74
71640;BMP280;60912;48.968;10.124;2023-02-10T11:49:26;98564.97;;;6.76
71640;BMP280;60912;48.968;10.124;2023-02-10T11:51:57;98565.78;;;6.91
71640;BMP280;60912;48.968;10.124;2023-02-10T11:54:24;98559.25;;;6.88
71640;BMP280;60912;48.968;10.124;2023-02-10T12:00:23;98562.88;;;7.09
71640;BMP280;60912;48.968;10.124;2023-02-10T12:05:54;98562.13;;;7.09
71640;BMP280;60912;48.968;10.124;2023-02-10T12:11:36;98557.09;;;6.93
71640;BMP280;60912;48.968;10.124;2023-02-10T12:14:28;98554.53;;;6.89
71640;BMP280;60912;48.968;10.124;2023-02-10T12:30:33;98545.47;;;6.98
71640;BMP280;60912;48.968;10.124;2023-02-10T12:33:41;98556.31;;;7.16
71640;BMP280;60912;48.968;10.124;2023-02-10T12:39:23;98544.75;;;7.12
71640;BMP280;60912;48.968;10.124;2023-02-10T12:52:58;98524.97;;;6.93
71640;BMP280;60912;48.968;10.124;2023-02-10T12:58:37;98532.47;;;7.22
71640;BMP280;60912;48.968;10.124;2023-02-10T13:03:45;98533.22;;;6.84
71640;BMP280;60912;48.968;10.124;2023-02-10T13:06:20;98535.75;;;6.73
71640;BMP280;60912;48.968;10.124;2023-02-10T13:14:45;98521.13;;;6.76
71640;BMP280;60912;48.968;10.124;2023-02-10T13:17:12;98527.78;;;6.99
71640;BMP280;60912;48.968;10.124;2023-02-10T13:19:57;98525.47;;;7.06
71640;BMP280;60912;48.968;10.124;2023-02-10T13:25:12;98514.97;;;7.19
71640;BMP280;60912;48.968;10.124;2023-02-10T13:28:10;98512.03;;;7.23
71640;BMP280;60912;48.968;10.124;2023-02-10T13:33:45;98511.69;;;7.15
71640;BMP280;60912;48.968;10.124;2023-02-10T13:36:17;98521.50;;;7.22
71640;BMP280;60912;48.968;10.124;2023-02-10T13:38:46;98512.03;;;7.23
71640;BMP280;60912;48.968;10.124;2023-02-10T13:41:29;98509.13;;;7.26
71640;BMP280;60912;48.968;10.124;2023-02-10T13:44:25;98510.28;;;6.81
71640;BMP280;60912;48.968;10.124;2023-02-10T13:47:10;98513.88;;;6.87
71640;BMP280;60912;48.968;10.124;2023-02-10T13:49:38;98509.38;;;6.99
71640;BMP280;60912;48.968;10.124;2023-02-10T13:52:16;98515.44;;;7.03
71640;BMP280;60912;48.968;10.124;2023-02-10T13:54:53;98520.94;;;7.03
71640;BMP280;60912;48.968;10.124;2023-02-10T13:57:28;98522.81;;;7.12
71640;BMP280;60912;48.968;10.124;2023-02-10T14:00:26;98518.09;;;7.12
71640;BMP280;60912;48.968;10.124;2023-02-10T14:03:01;98514.84;;;6.99
71640;BMP280;60912;48.968;10.124;2023-02-10T14:05:32;98511.00;;;6.67
71640;BMP280;60912;48.968;10.124;2023-02-10T14:07:59;98518.00;;;6.68
71640;BMP280;60912;48.968;10.124;2023-02-10T14:13:21;98517.09;;;6.62
71640;BMP280;60912;48.968;10.124;2023-02-10T14:18:43;98515.06;;;6.48
71640;BMP280;60912;48.968;10.124;2023-02-10T14:21:16;98512.69;;;6.65
71640;BMP280;60912;48.968;10.124;2023-02-10T14:23:49;98516.47;;;6.67
71640;BMP280;60912;48.968;10.124;2023-02-10T14:26:35;98517.69;;;6.66
71640;BMP280;60912;48.968;10.124;2023-02-10T14:29:01;98514.28;;;6.71
71640;BMP280;60912;48.968;10.124;2023-02-10T14:31:33;98526.31;;;6.74
71640;BMP280;60912;48.968;10.124;2023-02-10T14:34:04;98528.50;;;6.37
71640;BMP280;60912;48.968;10.124;2023-02-10T14:36:29;98520.63;;;6.30
71640;BMP280;60912;48.968;10.124;2023-02-10T14:38:57;98516.94;;;6.42
71640;BMP280;60912;48.968;10.124;2023-02-10T14:41:26;98510.53;;;6.45
71640;BMP280;60912;48.968;10.124;2023-02-10T14:43:52;98511.22;;;6.55
71640;BMP280;60912;48.968;10.124;2023-02-10T14:46:26;98515.66;;;6.52
71640;BMP280;60912;48.968;10.124;2023-02-10T14:49:02;98504.81;;;6.58
71640;BMP280;60912;48.968;10.124;2023-02-10T14:51:29;98506.22;;;6.53
71640;BMP280;60912;48.968;10.124;2023-02-10T14:54:19;98504.47;;;6.41
71640;BMP280;60912;48.968;10.124;2023-02-10T14:57:00;98505.09;;;6.36
71640;BMP280;60912;48.968;10.124;2023-02-10T14:59:31;98503.50;;;6.44
71640;BMP280;60912;48.968;10.124;2023-02-10T15:02:05;98508.72;;;6.42
71640;BMP280;60912;48.968;10.124;2023-02-10T15:04:35;98505.72;;;6.31
71640;BMP280;60912;48.968;10.124;2023-02-10T15:07:00;98512.16;;;6.28
71640;BMP280;60912;48.968;10.124;2023-02-10T15:09:32;98517.00;;;6.24
71640;BMP280;60912;48.968;10.124;2023-02-10T15:12:07;98515.09;;;6.15
71640;BMP280;60912;48.968;10.124;2023-02-10T15:17:32;98512.84;;;6.04
71640;BMP280;60912;48.968;10.124;2023-02-10T15:20:03;98508.31;;;6.01
71640;BMP280;60912;48.968;10.124;2023-02-10T15:25:33;98514.56;;;5.93
71640;BMP280;60912;48.968;10.124;2023-02-10T15:36:05;98503.53;;;5.60
71640;BMP280;60912;48.968;10.124;2023-02-10T15:44:28;98510.25;;;5.50
71640;BMP280;60912;48.968;10.124;2023-02-10T15:47:13;98516.06;;;5.43
71640;BMP280;60912;48.968;10.124;2023-02-10T15:49:43;98512.28;;;5.31
71640;BMP280;60912;48.968;10.124;2023-02-10T15:52:17;98515.75;;;5.32
71640;BMP280;60912;48.968;10.124;2023-02-10T15:54:44;98509.41;;;5.25
71640;BMP280;60912;48.968;10.124;2023-02-10T15:57:12;98519.72;;;5.12
71640;BMP280;60912;48.968;10.124;2023-02-10T15:59:38;98523.50;;;4.97
71640;BMP280;60912;48.968;10.124;2023-02-10T16:02:06;98521.53;;;4.88
71640;BMP280;60912;48.968;10.124;2023-02-10T16:04:33;98523.94;;;4.68
71640;BMP280;60912;48.968;10.124;2023-02-10T16:07:00;98515.88;;;4.55
71640;BMP280;60912;48.968;10.124;2023-02-10T16:09:26;98512.00;;;4.34
71640;BMP280;60912;48.968;10.124;2023-02-10T16:11:54;98509.03;;;4.10
71640;BMP280;60912;48.968;10.124;2023-02-10T16:14:23;98512.91;;;3.91
71640;BMP280;60912;48.968;10.124;2023-02-10T16:16:54;98512.31;;;3.65